Terminal Aerodrome Forecast
Issued by NWS Louisville, KY

Home | Current Version | Previous Version | Text Only | Print | Product List | Glossary On
Versions: 1 2 3 4 5 6 7 8 9 10 11 12
000
FTUS43 KLMK 261700
TAFBWG
TAF
KBWG 261725Z 2618/2718 24011G15KT P6SM SCT060
     FM270100 21009KT P6SM SCT040 BKN120
     FM271400 24015G21KT P6SM SCT050 BKN150=

USA.gov is the U.S. government's official web portal to all federal, state and local government web resources and services.